Time;durP1;ratioP1;P1;durP2;ratioP2;P2;SDS_P1;SDS_P2;PMS_P1;PMS_P2;Temp;Humidity;BMP_temperature;BMP_pressure;BME280_temperature;BME280_humidity;BME280_pressure;Samples;Min_cycle;Max_cycle;Signal;HPM_P1;HPM_P2
2021/11/14 00:02:23;;;;;;;;;108.50;74.00;;;;;3.42;100.00;99997.19;6310972;20;1947265;-47
2021/11/14 00:04:53;;;;;;;;;106.33;80.67;;;;;3.53;100.00;100003.09;6284461;20;3684594;-44
2021/11/14 00:07:24;;;;;;;;;105.75;71.50;;;;;3.50;100.00;99997.84;6283922;20;3690983;-45
2021/11/14 00:09:53;;;;;;;;;113.50;82.00;;;;;3.43;100.00;100006.91;6314884;20;4448118;-46
2021/11/14 00:12:24;;;;;;;;;118.33;83.33;;;;;3.46;100.00;100001.53;6314966;20;3692053;-46
2021/11/14 00:14:54;;;;;;;;;112.67;88.00;;;;;3.48;100.00;100005.88;6283817;20;3699175;-45
2021/11/14 00:17:24;;;;;;;;;102.67;72.33;;;;;3.44;100.00;100003.34;6283334;20;3683548;-45
2021/11/14 00:19:53;;;;;;;;;93.67;71.33;;;;;3.41;100.00;100006.09;6281736;20;3655446;-44
2021/11/14 00:22:23;;;;;;;;;102.50;76.50;;;;;3.37;100.00;100002.66;6315280;20;4455513;-44
2021/11/14 00:24:54;;;;;;;;;100.75;68.25;;;;;3.45;100.00;100005.06;6279927;20;3693034;-47
2021/11/14 00:27:23;;;;;;;;;104.33;73.33;;;;;3.49;100.00;100014.72;6316035;20;3672095;-45
2021/11/14 00:29:53;;;;;;;;;97.00;69.00;;;;;3.46;100.00;100012.13;6279204;20;3675359;-43
2021/11/14 00:32:23;;;;;;;;;98.00;69.00;;;;;3.50;100.00;100012.03;6280378;20;3692923;-44
2021/11/14 00:34:53;;;;;;;;;99.67;75.00;;;;;3.48;100.00;100011.19;6281612;20;3693045;-44
2021/11/14 00:37:24;;;;;;;;;109.50;69.00;;;;;3.37;100.00;100012.38;6280293;20;3707642;-45
2021/11/14 00:39:54;;;;;;;;;102.25;73.25;;;;;3.35;100.00;100011.56;6279774;20;3699273;-44
2021/11/14 00:42:24;;;;;;;;;95.33;65.67;;;;;3.35;100.00;100015.09;6281978;20;3649197;-45
2021/11/14 00:44:54;;;;;;;;;107.00;76.00;;;;;3.39;100.00;100005.25;6283599;20;3694394;-44
2021/11/14 00:47:24;;;;;;;;;105.00;69.50;;;;;3.39;100.00;99999.94;6283653;20;4467931;-44
2021/11/14 00:49:54;;;;;;;;;104.33;70.33;;;;;3.35;100.00;100004.47;6282838;20;3682559;-45
2021/11/14 00:52:24;;;;;;;;;117.67;77.67;;;;;3.46;100.00;100009.47;6282620;20;3690228;-44
2021/11/14 00:54:54;;;;;;;;;115.67;80.67;;;;;3.37;100.00;100001.75;6281596;20;3680569;-46
2021/11/14 00:57:23;;;;;;;;;117.00;82.00;;;;;3.33;100.00;99994.81;6281441;20;3686762;-45
2021/11/14 00:59:54;;;;;;;;;105.75;74.75;;;;;3.42;100.00;99999.84;6280330;20;3686857;-45
2021/11/14 01:02:24;;;;;;;;;115.75;80.75;;;;;4.11;100.00;100009.38;6311218;20;3693942;-45
2021/11/14 01:04:54;;;;;;;;;105.67;67.67;;;;;3.36;100.00;99997.38;6280604;20;3681458;-44
2021/11/14 01:07:25;;;;;;;;;115.00;81.50;;;;;3.63;100.00;99999.25;6282478;20;3683622;-45
2021/11/14 01:09:55;;;;;;;;;111.25;74.50;;;;;3.76;100.00;99998.91;6277450;20;3694075;-44
2021/11/14 01:12:26;;;;;;;;;121.50;83.25;;;;;3.52;100.00;99988.06;6313103;20;3688902;-44
2021/11/14 01:14:56;;;;;;;;;117.50;73.50;;;;;3.46;100.00;99990.91;6280431;20;3696141;-44
2021/11/14 01:17:27;;;;;;;;;144.00;90.33;;;;;3.40;100.00;99991.94;6276946;20;3692953;-47
2021/11/14 01:19:59;;;;;;;;;121.00;84.67;;;;;3.49;100.00;99986.38;6280443;20;3689837;-45
2021/11/14 01:22:28;;;;;;;;;120.00;75.33;;;;;3.37;100.00;99983.19;6281932;20;3694098;-43
2021/11/14 01:24:58;;;;;;;;;134.33;86.00;;;;;3.49;100.00;99980.19;6278397;20;3688869;-46
2021/11/14 01:27:29;;;;;;;;;147.75;94.50;;;;;3.33;100.00;99989.50;6282477;20;3696315;-44
2021/11/14 01:29:59;;;;;;;;;133.67;80.00;;;;;3.27;100.00;99990.53;6279871;20;3690831;-46
2021/11/14 01:32:28;;;;;;;;;122.33;74.67;;;;;3.38;100.00;99990.25;6282282;20;3690829;-46
2021/11/14 01:34:59;;;;;;;;;107.25;69.25;;;;;3.35;100.00;99987.69;6281668;20;3688835;-44
2021/11/14 01:37:29;;;;;;;;;104.50;69.50;;;;;3.74;100.00;99997.19;6278309;20;3701532;-45
2021/11/14 01:40:00;;;;;;;;;109.75;69.00;;;;;3.72;100.00;100004.31;6277762;20;3700474;-44
2021/11/14 01:42:31;;;;;;;;;113.50;70.50;;;;;3.64;100.00;100006.31;6276549;20;4465879;-44
2021/11/14 01:45:00;;;;;;;;;106.00;75.00;;;;;3.85;100.00;100009.28;6314645;20;3488202;-44
2021/11/14 01:47:28;;;;;;;;;102.00;70.50;;;;;3.52;100.00;100007.53;6308714;20;1946174;-43
2021/11/14 01:49:57;;;;;;;;;105.50;69.00;;;;;3.29;100.00;99996.66;6278321;20;1944058;-44
2021/11/14 01:52:31;;;;;;;;;102.67;71.67;;;;;3.37;100.00;100001.75;6281382;20;3684980;-46
2021/11/14 01:55:00;;;;;;;;;102.33;69.67;;;;;3.38;100.00;100003.53;6280798;20;3692043;-44
2021/11/14 01:57:31;;;;;;;;;98.33;68.67;;;;;3.34;100.00;100000.06;6275921;20;3670132;-44
2021/11/14 02:00:01;;;;;;;;;93.00;68.00;;;;;3.38;100.00;100001.72;6279957;20;3642978;-45
2021/11/14 02:02:30;;;;;;;;;97.67;65.67;;;;;3.25;100.00;99993.22;6277627;20;3674316;-44
2021/11/14 02:05:00;;;;;;;;;99.75;68.25;;;;;3.41;100.00;99995.47;6280969;20;4420261;-44
2021/11/14 02:07:32;;;;;;;;;105.00;72.75;;;;;3.28;100.00;99993.13;6312666;20;3700539;-45
2021/11/14 02:10:05;;;;;;;;;97.00;64.00;;;;;3.20;100.00;99989.81;6277152;20;3684770;-45
2021/11/14 02:12:35;;;;;;;;;102.00;64.67;;;;;3.26;100.00;99981.69;6278320;20;3676670;-44
2021/11/14 02:15:06;;;;;;;;;97.00;71.00;;;;;3.16;100.00;99976.66;6280590;20;3670218;-44
2021/11/14 02:17:36;;;;;;;;;108.00;76.67;;;;;3.17;100.00;99978.44;6279892;20;3687834;-45
2021/11/14 02:20:09;;;;;;;;;90.00;64.00;;;;;3.20;100.00;99968.59;6280508;20;3546176;-44
2021/11/14 02:22:40;;;;;;;;;104.00;76.25;;;;;3.27;100.00;99971.97;6310393;20;3689794;-45
2021/11/14 02:25:14;;;;;;;;;104.00;71.00;;;;;3.19;100.00;99982.78;6314521;20;4448210;-44
2021/11/14 02:27:48;;;;;;;;;101.67;70.67;;;;;3.04;100.00;99991.13;6277222;20;3683584;-46
2021/11/14 02:30:20;;;;;;;;;102.33;73.00;;;;;3.55;100.00;99995.94;6280727;20;3675216;-43
2021/11/14 02:32:53;;;;;;;;;97.75;68.00;;;;;3.09;100.00;99994.53;6282227;20;4438866;-44
2021/11/14 02:35:46;;;;;;;;;93.67;65.00;;;;;3.42;100.00;100002.50;6310714;20;3649173;-44
2021/11/14 02:38:18;;;;;;;;;104.50;67.00;;;;;3.54;100.00;99993.34;6316355;20;3698360;-46
2021/11/14 02:40:50;;;;;;;;;98.33;66.33;;;;;3.54;100.00;99994.22;6315777;20;3655656;-44
2021/11/14 02:43:22;;;;;;;;;92.33;63.00;;;;;3.44;100.00;99992.72;6283436;20;3658586;-45
2021/11/14 02:45:53;;;;;;;;;98.25;70.50;;;;;3.44;100.00;99993.59;6282974;20;3689914;-45
2021/11/14 02:48:23;;;;;;;;;84.33;49.33;;;;;3.27;100.00;99985.22;6283467;20;3666937;-44
2021/11/14 02:50:56;;;;;;;;;91.00;65.33;;;;;2.99;100.00;99980.63;6283117;20;3653359;-47
2021/11/14 02:53:28;;;;;;;;;93.00;65.33;;;;;2.98;100.00;99984.22;6283600;20;3654467;-44
2021/11/14 02:55:58;;;;;;;;;94.67;67.33;;;;;3.27;100.00;99985.22;6285646;20;3667954;-44
2021/11/14 02:58:29;;;;;;;;;97.33;67.00;;;;;3.22;100.00;99993.31;6283576;20;3664789;-46
2021/11/14 03:01:23;;;;;;;;;96.33;64.33;;;;;3.19;100.00;99993.41;6279910;20;3656593;-48
2021/11/14 03:03:55;;;;;;;;;95.67;64.00;;;;;2.95;100.00;99980.75;6317625;20;3643998;-45
2021/11/14 03:06:29;;;;;;;;;89.33;63.67;;;;;3.07;100.00;99977.78;6284235;20;3630437;-49
2021/11/14 03:08:59;;;;;;;;;84.75;60.00;;;;;3.13;100.00;99990.88;6318284;20;3659671;-45
2021/11/14 03:11:29;;;;;;;;;99.00;66.00;;;;;3.34;100.00;99996.53;6318315;20;3662804;-44
2021/11/14 03:13:58;;;;;;;;;94.00;64.67;;;;;3.29;100.00;99992.25;6282034;20;3648251;-44
2021/11/14 03:16:29;;;;;;;;;89.67;63.33;;;;;3.46;100.00;99998.88;6282122;20;3650347;-45
2021/11/14 03:19:00;;;;;;;;;94.00;63.00;;;;;3.77;100.00;100011.28;6315236;20;3637851;-47
2021/11/14 03:21:30;;;;;;;;;93.00;65.33;;;;;3.57;100.00;100010.06;6316731;20;3642947;-46
2021/11/14 03:24:00;;;;;;;;;88.67;66.33;;;;;3.39;100.00;99994.63;6316480;20;3640858;-46
2021/11/14 03:26:30;;;;;;;;;91.33;63.67;;;;;3.34;100.00;100001.84;6313883;20;3647101;-43
2021/11/14 03:29:00;;;;;;;;;95.00;69.00;;;;;3.35;100.00;100003.59;6282536;20;3685625;-43
2021/11/14 03:31:30;;;;;;;;;280.50;230.00;;;;;3.50;100.00;100005.81;6284487;20;4488752;-44
2021/11/14 03:34:00;;;;;;;;;259.33;178.33;;;;;3.32;100.00;100011.63;6283593;20;3705533;-46
2021/11/14 03:36:30;;;;;;;;;87.00;61.33;;;;;3.43;100.00;100010.44;6281797;20;3659606;-44
2021/11/14 03:39:07;;;;;;;;;91.00;65.33;;;;;3.35;100.00;100008.91;6276707;20;3649259;-47
2021/11/14 03:41:42;;;;;;;;;92.33;63.00;;;;;3.75;100.00;100013.97;6315811;20;3649183;-45
2021/11/14 03:44:13;;;;;;;;;88.67;61.00;;;;;3.48;100.00;100011.19;6313107;20;3649224;-45
2021/11/14 03:46:42;;;;;;;;;92.67;67.67;;;;;3.29;100.00;100008.16;6314592;20;3654420;-45
2021/11/14 03:49:12;;;;;;;;;97.00;68.67;;;;;3.34;100.00;100005.38;6282257;20;3660783;-46
2021/11/14 03:51:42;;;;;;;;;101.00;69.33;;;;;3.40;100.00;99999.03;6283968;20;3690982;-46
2021/11/14 03:54:11;;;;;;;;;87.67;62.33;;;;;3.74;100.00;100001.63;6284087;20;3644033;-45
2021/11/14 03:56:41;;;;;;;;;92.00;66.33;;;;;3.83;100.00;100003.16;6313031;20;3645143;-44
2021/11/14 03:59:11;;;;;;;;;92.67;64.33;;;;;3.67;100.00;100000.91;6280074;20;3667034;-44
2021/11/14 04:01:41;;;;;;;;;86.00;65.00;;;;;3.62;100.00;100000.19;6280861;20;3646039;-46
2021/11/14 04:04:11;;;;;;;;;91.00;64.33;;;;;3.96;100.00;100007.19;6315354;20;3647182;-47
2021/11/14 04:06:40;;;;;;;;;92.33;63.67;;;;;4.02;100.00;100020.28;6314745;20;3650243;-44
2021/11/14 04:09:10;;;;;;;;;90.00;61.33;;;;;4.12;100.00;100035.03;6310679;20;3655526;-44
2021/11/14 04:11:41;;;;;;;;;99.25;75.50;;;;;4.17;100.00;100042.88;6281571;20;3703922;-45
2021/11/14 04:14:10;;;;;;;;;91.00;65.00;;;;;3.90;100.00;100036.59;6314477;20;2788784;-44
2021/11/14 04:16:39;;;;;;;;;89.00;64.00;;;;;3.54;100.00;100030.50;6281841;20;3651291;-45
2021/11/14 04:19:11;;;;;;;;;91.33;63.00;;;;;3.66;100.00;100015.13;6280008;20;3658678;-46
2021/11/14 04:21:41;;;;;;;;;90.67;63.33;;;;;3.57;100.00;100012.72;6313636;20;3649212;-44
2021/11/14 04:24:10;;;;;;;;;90.33;63.67;;;;;3.48;100.00;100007.66;6314889;20;3646047;-45
2021/11/14 04:26:40;;;;;;;;;90.67;65.33;;;;;3.73;100.00;100024.63;6310577;20;3660658;-46
2021/11/14 04:29:10;;;;;;;;;87.67;64.00;;;;;3.63;100.00;100019.63;6312444;20;3642938;-45
2021/11/14 04:31:39;;;;;;;;;90.67;65.67;;;;;3.46;100.00;100022.75;6314075;20;3657521;-45
2021/11/14 04:34:10;;;;;;;;;88.00;64.67;;;;;3.62;100.00;100024.06;6283293;20;3658619;-43
2021/11/14 04:36:39;;;;;;;;;88.67;65.67;;;;;4.03;100.00;100032.66;6282846;20;3659579;-45
2021/11/14 04:39:09;;;;;;;;;94.33;66.33;;;;;3.99;100.00;100041.63;6278747;20;3661800;-50
2021/11/14 04:41:38;;;;;;;;;89.00;67.00;;;;;3.67;100.00;100030.13;6281320;20;3643960;-46
2021/11/14 04:44:08;;;;;;;;;92.67;66.67;;;;;3.57;100.00;100031.28;6314581;20;3645026;-45
2021/11/14 04:46:38;;;;;;;;;89.00;58.33;;;;;3.61;100.00;100032.09;6281823;20;3650365;-46
2021/11/14 04:49:08;;;;;;;;;92.33;66.00;;;;;3.52;100.00;100027.88;6312923;20;3668976;-46
2021/11/14 04:51:37;;;;;;;;;91.00;64.67;;;;;3.55;100.00;100021.63;6281580;20;3647111;-44
2021/11/14 04:54:07;;;;;;;;;91.25;66.00;;;;;3.69;100.00;100025.66;6315141;20;4415916;-44
2021/11/14 04:56:37;;;;;;;;;91.00;65.67;;;;;3.90;100.00;100025.97;6312168;20;3652432;-46
2021/11/14 04:59:06;;;;;;;;;93.00;65.00;;;;;3.45;100.00;100028.97;6277466;20;3642932;-44
2021/11/14 05:01:37;;;;;;;;;98.00;66.33;;;;;3.72;100.00;100035.31;6281344;20;3674245;-45
2021/11/14 05:04:08;;;;;;;;;92.33;65.00;;;;;3.85;100.00;100036.72;6281929;20;3654373;-46
2021/11/14 05:06:38;;;;;;;;;83.00;62.67;;;;;4.00;100.00;100030.06;6281327;20;3640845;-44
2021/11/14 05:09:08;;;;;;;;;90.33;65.00;;;;;3.90;100.00;100032.13;6312984;20;3636707;-44
2021/11/14 05:11:38;;;;;;;;;97.75;64.00;;;;;3.93;100.00;100034.69;6317832;20;3647079;-44
2021/11/14 05:14:08;;;;;;;;;90.33;66.00;;;;;3.81;100.00;100036.84;6315133;20;3663775;-44
2021/11/14 05:16:38;;;;;;;;;93.67;67.67;;;;;3.85;100.00;100035.84;6281653;20;3673185;-44
2021/11/14 05:19:07;;;;;;;;;87.00;66.00;;;;;4.09;100.00;100035.13;6279339;20;3644987;-44
2021/11/14 05:21:39;;;;;;;;;86.00;62.67;;;;;4.12;100.00;100034.16;6311181;20;3647081;-47
2021/11/14 05:24:08;;;;;;;;;82.33;63.67;;;;;4.24;100.00;100043.53;6313532;20;2888879;-44
2021/11/14 05:26:38;;;;;;;;;98.00;67.00;;;;;4.28;100.00;100045.22;6311558;20;3666897;-44
2021/11/14 05:29:08;;;;;;;;;93.00;67.00;;;;;4.35;100.00;100041.47;6278433;20;3664802;-44
2021/11/14 05:31:38;;;;;;;;;93.00;67.33;;;;;3.91;100.00;100051.59;6278381;20;3663115;-44
2021/11/14 05:34:06;;;;;;;;;96.50;67.50;;;;;4.11;100.00;100051.91;6279626;20;1939897;-44
2021/11/14 05:36:36;;;;;;;;;86.67;64.33;;;;;3.88;100.00;100057.00;6281280;20;3640962;-45
2021/11/14 05:39:05;;;;;;;;;85.00;61.67;;;;;3.51;100.00;100042.94;6315022;20;3633591;-44
2021/11/14 05:41:35;;;;;;;;;98.33;68.00;;;;;3.48;100.00;100042.19;6277909;20;3663824;-47
2021/11/14 05:44:05;;;;;;;;;100.33;72.67;;;;;3.51;100.00;100047.41;6280378;20;3678361;-45
2021/11/14 05:46:35;;;;;;;;;91.33;62.00;;;;;3.77;100.00;100061.75;6280866;20;3641907;-45
2021/11/14 05:49:08;;;;;;;;;102.33;69.33;;;;;3.57;100.00;100060.50;6278246;20;3683587;-44
2021/11/14 05:51:39;;;;;;;;;95.33;65.00;;;;;3.48;100.00;100066.06;6279970;20;3670032;-44
2021/11/14 05:54:09;;;;;;;;;96.25;72.50;;;;;3.57;100.00;100068.47;6284377;20;4414832;-46
2021/11/14 05:56:39;;;;;;;;;87.33;62.67;;;;;3.54;100.00;100063.22;6313743;20;3652309;-46
2021/11/14 06:01:55;;;;;;;;;83.67;60.67;;;;;3.48;100.00;100063.41;6311044;20;3648272;-47
2021/11/14 06:07:01;;;;;;;;;98.67;73.33;;;;;3.63;100.00;100073.59;6314242;20;3676309;-46
2021/11/14 06:09:31;;;;;;;;;96.00;68.00;;;;;3.52;100.00;100081.84;6279100;20;3667935;-44
2021/11/14 06:12:01;;;;;;;;;98.00;71.00;;;;;3.65;100.00;100082.41;6280277;20;3678691;-45
2021/11/14 06:14:30;;;;;;;;;90.00;67.00;;;;;3.79;100.00;100089.13;6278227;20;3648167;-44
2021/11/14 06:17:01;;;;;;;;;93.33;67.00;;;;;3.55;100.00;100096.81;6276854;20;3647221;-44
2021/11/14 06:19:31;;;;;;;;;91.00;68.00;;;;;3.81;100.00;100100.56;6310281;20;3645078;-43
2021/11/14 06:22:01;;;;;;;;;99.33;69.33;;;;;4.05;100.00;100112.31;6312439;20;3684075;-48
2021/11/14 06:24:31;;;;;;;;;99.67;70.33;;;;;3.78;100.00;100104.19;6281930;20;3684899;-45
2021/11/14 06:27:00;;;;;;;;;97.67;67.67;;;;;3.65;100.00;100114.25;6280335;20;3681883;-44
2021/11/14 06:29:30;;;;;;;;;102.67;72.33;;;;;3.82;100.00;100121.78;6275294;20;3686849;-44
2021/11/14 06:32:00;;;;;;;;;108.25;76.00;;;;;3.90;100.00;100116.28;6278082;20;4461635;-44
2021/11/14 06:34:30;;;;;;;;;103.00;74.33;;;;;3.96;100.00;100113.44;6278728;20;3678371;-44
2021/11/14 06:37:02;;;;;;;;;109.00;74.00;;;;;4.02;100.00;100112.41;6279811;20;4461759;-45
2021/11/14 06:39:33;;;;;;;;;106.00;78.25;;;;;4.13;100.00;100119.16;6310288;20;3698356;-45
2021/11/14 06:42:06;;;;;;;;;104.00;69.00;;;;;4.33;100.00;100125.69;6277009;20;3693090;-43
2021/11/14 06:44:36;;;;;;;;;85.00;57.00;;;;;4.27;100.00;100128.53;6279782;20;3651288;-44
2021/11/14 06:47:05;;;;;;;;;90.33;67.67;;;;;4.11;100.00;100123.66;6277430;20;3650256;-43
2021/11/14 06:49:35;;;;;;;;;87.67;60.00;;;;;4.07;100.00;100132.59;6279119;20;3653502;-45
2021/11/14 06:52:06;;;;;;;;;96.33;69.00;;;;;4.03;100.00;100136.28;6277412;20;3661890;-44
2021/11/14 06:54:36;;;;;;;;;98.00;69.00;;;;;4.27;100.00;100134.72;6280472;20;4430447;-44
2021/11/14 06:57:07;;;;;;;;;102.50;72.50;;;;;4.48;100.00;100138.53;6309466;20;3697141;-44
2021/11/14 06:59:38;;;;;;;;;104.75;73.50;;;;;4.27;100.00;100144.47;6311693;20;4454395;-44
2021/11/14 07:02:09;;;;;;;;;94.67;67.00;;;;;4.49;100.00;100145.59;6310715;20;3668064;-44
2021/11/14 07:04:39;;;;;;;;;92.33;64.67;;;;;4.36;100.00;100145.06;6280070;20;3664906;-44
2021/11/14 07:07:10;;;;;;;;;97.33;67.00;;;;;4.73;100.00;100136.00;6278442;20;3688754;-43
2021/11/14 07:09:40;;;;;;;;;98.33;68.33;;;;;4.45;100.00;100146.59;6276631;20;3682575;-44
2021/11/14 07:12:10;;;;;;;;;98.50;68.00;;;;;4.18;100.00;100135.81;6272341;20;1936746;-44
2021/11/14 07:14:40;;;;;;;;;104.67;72.00;;;;;4.24;100.00;100141.88;6278754;20;3701254;-46
2021/11/14 07:17:11;;;;;;;;;98.33;67.00;;;;;4.30;100.00;100149.69;6279303;20;3662758;-43
2021/11/14 07:19:41;;;;;;;;;104.67;74.67;;;;;4.27;100.00;100139.16;6276595;20;3680836;-44
2021/11/14 07:22:11;;;;;;;;;105.50;77.50;;;;;4.25;100.00;100146.31;6279229;20;3683964;-44
2021/11/14 07:24:41;;;;;;;;;85.00;61.33;;;;;4.16;100.00;100137.69;6315181;20;3658563;-44
2021/11/14 07:27:12;;;;;;;;;92.33;64.00;;;;;4.38;100.00;100139.72;6284370;20;3659579;-44
2021/11/14 07:29:42;;;;;;;;;94.33;66.33;;;;;4.20;100.00;100138.44;6280688;20;3656596;-43
2021/11/14 07:32:12;;;;;;;;;88.67;62.00;;;;;4.65;100.00;100142.47;6281587;20;3652305;-44
2021/11/14 07:34:41;;;;;;;;;100.50;75.25;;;;;4.34;100.00;100146.03;6317994;20;4440811;-45
2021/11/14 07:37:12;;;;;;;;;86.67;62.67;;;;;4.51;100.00;100148.22;6315580;20;3648220;-44
2021/11/14 07:39:41;;;;;;;;;93.00;66.00;;;;;4.86;100.00;100147.13;6313872;20;3658680;-42
2021/11/14 07:42:11;;;;;;;;;102.33;71.33;;;;;4.66;100.00;100141.53;6282356;20;3677333;-44
2021/11/14 07:44:41;;;;;;;;;94.00;65.00;;;;;4.87;100.00;100153.31;6280875;20;3659616;-44
2021/11/14 07:47:10;;;;;;;;;100.00;67.33;;;;;4.69;100.00;100137.03;6282086;20;3685622;-46
2021/11/14 07:49:40;;;;;;;;;98.00;73.67;;;;;4.86;100.00;100143.63;6276238;20;3681808;-44
2021/11/14 07:52:10;;;;;;;;;94.00;64.00;;;;;4.66;100.00;100136.22;6281874;20;3530440;-43
2021/11/14 07:54:38;;;;;;;;;100.00;73.00;;;;;4.88;100.00;100140.00;6312978;20;1944373;-46
2021/11/14 07:57:08;;;;;;;;;103.00;73.00;;;;;4.75;100.00;100133.31;6282978;20;3686704;-43
2021/11/14 07:59:37;;;;;;;;;98.00;66.33;;;;;4.65;100.00;100134.50;6281556;20;3670264;-43
2021/11/14 08:02:09;;;;;;;;;93.00;70.33;;;;;4.64;100.00;100146.94;6279335;20;3678432;-43
2021/11/14 08:04:39;;;;;;;;;89.67;62.33;;;;;4.76;100.00;100145.69;6282659;20;3663910;-45
2021/11/14 08:07:08;;;;;;;;;83.00;62.00;;;;;4.86;100.00;100143.63;6282339;20;3645021;-43
2021/11/14 08:09:38;;;;;;;;;92.00;68.33;;;;;4.85;100.00;100148.06;6312709;20;3661947;-43
2021/11/14 08:12:08;;;;;;;;;97.00;69.00;;;;;4.60;100.00;100148.78;6281956;20;3679397;-44
2021/11/14 08:14:38;;;;;;;;;90.67;60.67;;;;;4.74;100.00;100139.53;6281125;20;3648259;-44
2021/11/14 08:17:06;;;;;;;;;104.50;76.00;;;;;4.85;100.00;100150.72;6307031;20;1944014;-49
2021/11/14 08:19:36;;;;;;;;;96.33;67.00;;;;;5.00;100.00;100147.59;6276381;20;3666991;-43
2021/11/14 08:22:06;;;;;;;;;95.67;69.00;;;;;4.67;100.00;100159.25;6280825;20;3665929;-44
2021/11/14 08:24:36;;;;;;;;;96.67;73.33;;;;;5.02;100.00;100158.19;6282990;20;3663902;-46
2021/11/14 08:27:06;;;;;;;;;92.33;67.33;;;;;5.06;100.00;100163.38;6284289;20;3662759;-44
2021/11/14 08:29:36;;;;;;;;;103.67;81.00;;;;;5.42;100.00;100155.09;6283118;20;3683678;-48
2021/11/14 08:32:07;;;;;;;;;94.33;74.33;;;;;5.26;100.00;100164.50;6284504;20;3677348;-44
2021/11/14 08:34:38;;;;;;;;;103.25;82.00;;;;;5.30;100.00;100166.16;6282320;20;3682653;-45
2021/11/14 08:37:08;;;;;;;;;104.75;73.00;;;;;5.71;100.00;100166.56;6314105;20;4460629;-47
2021/11/14 08:39:40;;;;;;;;;94.00;69.33;;;;;5.30;100.00;100162.63;6313167;20;3665948;-48
2021/11/14 08:42:11;;;;;;;;;99.00;69.00;;;;;5.52;100.00;100165.47;6283573;20;3673145;-45
2021/11/14 08:44:43;;;;;;;;;124.50;92.25;;;;;6.03;100.00;100178.84;6283397;20;3693407;-44
2021/11/14 08:47:14;;;;;;;;;96.00;67.75;;;;;5.50;100.00;100182.38;6317109;20;4430508;-43
2021/11/14 08:49:44;;;;;;;;;90.00;63.50;;;;;5.43;100.00;100187.94;6314946;20;4403364;-44
2021/11/14 08:52:15;;;;;;;;;103.75;76.00;;;;;5.72;100.00;100190.50;6314912;20;4453350;-45
2021/11/14 08:54:44;;;;;;;;;70.00;47.33;;;;;5.55;100.00;100182.19;6281144;20;3630564;-44
2021/11/14 08:57:17;;;;;;;;;98.00;72.00;;;;;5.88;100.00;100179.34;6313825;20;3677339;-46
2021/11/14 08:59:49;;;;;;;;;93.50;67.25;;;;;6.04;100.00;100174.38;6281493;20;4427408;-45
2021/11/14 09:02:22;;;;;;;;;93.50;76.25;;;;;6.11;100.00;100183.91;6316843;20;4414816;-45
2021/11/14 09:04:52;;;;;;;;;89.75;64.00;;;;;6.08;100.00;100184.00;6318795;20;4407549;-45
2021/11/14 09:07:21;;;;;;;;;96.50;71.25;;;;;5.92;100.00;100180.97;6316783;20;4446162;-44
2021/11/14 09:09:51;;;;;;;;;92.25;65.00;;;;;6.39;100.00;100183.78;6313553;20;4417337;-45
2021/11/14 09:12:20;;;;;;;;;91.33;66.00;;;;;6.33;100.00;100186.66;6310164;20;3654523;-44
2021/11/14 09:14:50;;;;;;;;;86.67;62.67;;;;;6.38;100.00;100182.03;6280700;20;3655429;-44
2021/11/14 09:17:24;;;;;;;;;84.33;61.33;;;;;6.12;100.00;100188.31;6278337;20;3656549;-44
2021/11/14 09:19:54;;;;;;;;;91.00;66.33;;;;;6.06;100.00;100180.53;6281355;20;3665988;-44
2021/11/14 09:22:25;;;;;;;;;92.67;72.67;;;;;5.79;100.00;100183.16;6278458;20;3657654;-43
2021/11/14 09:24:54;;;;;;;;;94.33;68.67;;;;;6.38;100.00;100180.25;6284431;20;3671075;-44
2021/11/14 09:27:24;;;;;;;;;93.50;70.25;;;;;6.47;100.00;100172.81;6286737;20;4406450;-44
2021/11/14 09:29:54;;;;;;;;;95.00;68.00;;;;;6.24;100.00;100174.56;6315294;20;3611714;-46
2021/11/14 09:32:24;;;;;;;;;93.67;66.33;;;;;6.29;100.00;100172.59;6317492;20;3657507;-44
2021/11/14 09:34:56;;;;;;;;;104.50;79.50;;;;;6.38;100.00;100171.38;6277987;20;1938785;-44
2021/11/14 09:37:26;;;;;;;;;85.25;61.50;;;;;6.41;100.00;100167.72;6285429;20;3652583;-47
2021/11/14 09:39:56;;;;;;;;;91.33;68.33;;;;;6.57;100.00;100175.09;6315263;20;3668062;-43
2021/11/14 09:42:28;;;;;;;;;100.00;74.00;;;;;6.69;100.00;100178.22;6281487;20;3672227;-44
2021/11/14 09:44:59;;;;;;;;;95.67;79.00;;;;;6.99;100.00;100181.53;6281700;20;3672189;-43
2021/11/14 09:47:29;;;;;;;;;102.00;76.33;;;;;7.08;100.00;100174.94;6285181;20;3690989;-44
2021/11/14 09:50:04;;;;;;;;;95.75;77.00;;;;;6.79;100.00;100172.50;6285150;20;3674277;-47
2021/11/14 09:52:37;;;;;;;;;95.33;73.33;;;;;6.72;100.00;100179.00;6314205;20;3668995;-45
2021/11/14 09:55:12;;;;;;;;;103.50;88.25;;;;;7.10;100.00;100183.78;6282883;20;3692239;-45
2021/11/14 09:57:43;;;;;;;;;104.75;82.50;;;;;6.96;100.00;100176.31;6280651;20;3704503;-44
2021/11/14 10:00:18;;;;;;;;;87.00;61.33;;;;;6.74;100.00;100171.81;6280926;20;3656870;-46
2021/11/14 10:02:48;;;;;;;;;96.67;72.00;;;;;6.68;100.00;100172.03;6280332;20;3676311;-44
2021/11/14 10:05:17;;;;;;;;;91.75;66.25;;;;;7.17;100.00;100175.47;6287693;20;4417924;-43
2021/11/14 10:08:00;;;;;;;;;120.50;92.50;;;;;7.07;100.00;100171.41;6310751;20;1953485;-44
2021/11/14 10:10:39;;;;;;;;;86.33;61.67;;;;;7.00;100.00;100173.47;6282285;20;3658598;-44
2021/11/14 10:13:23;;;;;;;;;92.00;65.50;;;;;7.03;100.00;100173.34;6288179;20;4414903;-44
2021/11/14 10:16:10;;;;;;;;;82.67;63.00;;;;;7.38;100.00;100178.22;6315649;20;3646166;-47
2021/11/14 10:19:02;;;;;;;;;90.67;68.00;;;;;7.10;100.00;100165.09;6285629;20;3674180;-44
2021/11/14 10:21:34;;;;;;;;;89.00;67.33;;;;;7.68;99.74;100165.38;6284068;20;3663758;-46
2021/11/14 10:24:10;;;;;;;;;89.67;68.67;;;;;7.39;100.00;100169.25;6282915;20;3662740;-44
2021/11/14 10:26:39;;;;;;;;;99.50;79.00;;;;;7.43;100.00;100165.53;6278384;20;1944131;-43
2021/11/14 10:29:12;;;;;;;;;94.33;71.67;;;;;7.76;98.79;100175.75;6282554;20;3686786;-43
2021/11/14 10:31:45;;;;;;;;;92.00;70.00;;;;;7.67;99.54;100172.53;6282223;20;3666891;-44
2021/11/14 10:34:18;;;;;;;;;94.50;71.50;;;;;7.81;98.84;100173.75;6287978;20;4440907;-45
2021/11/14 10:36:57;;;;;;;;;127.00;98.50;;;;;7.80;97.83;100178.25;6310986;20;1953717;-45
2021/11/14 10:39:40;;;;;;;;;103.83;77.50;;;;;7.48;99.99;100174.25;6296607;20;3702461;-44
2021/11/14 10:42:18;;;;;;;;;83.25;61.00;;;;;7.23;100.00;100175.22;6317394;20;3645271;-45
2021/11/14 10:45:00;;;;;;;;;110.00;86.00;;;;;7.54;100.00;100173.97;6313277;20;1945252;-43
2021/11/14 10:47:32;;;;;;;;;148.57;124.86;;;;;7.51;99.53;100173.25;6293900;20;2530536;-44
2021/11/14 10:50:13;;;;;;;;;93.33;70.67;;;;;7.44;100.00;100177.97;6282745;20;3666874;-43
2021/11/14 10:52:56;;;;;;;;;89.33;68.33;;;;;7.70;99.69;100180.41;6285040;20;3661850;-44
2021/11/14 10:55:31;;;;;;;;;94.50;68.75;;;;;7.70;99.25;100174.22;6286637;20;4426326;-45
2021/11/14 10:58:00;;;;;;;;;87.00;63.67;;;;;7.85;98.97;100178.91;6314999;20;3655583;-44
2021/11/14 11:00:31;;;;;;;;;105.00;82.33;;;;;7.97;98.20;100182.00;6285474;20;3692938;-44
2021/11/14 11:03:06;;;;;;;;;90.00;66.00;;;;;7.81;98.27;100181.78;6284565;20;3670012;-43
2021/11/14 11:05:37;;;;;;;;;93.75;68.00;;;;;7.30;100.00;100172.31;6288257;20;4426255;-44
2021/11/14 11:08:17;;;;;;;;;112.50;80.25;;;;;7.69;100.00;100170.66;6320846;20;4476377;-44
2021/11/14 11:10:58;;;;;;;;;88.75;72.00;;;;;7.69;99.65;100172.47;6320657;20;4402396;-45
2021/11/14 11:13:59;;;;;;;;;94.50;73.75;;;;;7.99;98.57;100170.28;6322252;20;4436724;-44
2021/11/14 11:16:32;;;;;;;;;107.50;85.50;;;;;7.45;99.70;100158.31;6315701;20;1946181;-43
2021/11/14 11:19:12;;;;;;;;;86.67;65.33;;;;;7.94;99.36;100166.94;6286667;20;3669006;-44